sensor_id;sensor_type;location;lat;lon;timestamp;pressure;altitude;pressure_sealevel;temperature;humidity
46456;BME280;32154;47.160;8.120;2022-09-09T00:00:24;95602.28;;;20.32;57.59
46456;BME280;32154;47.160;8.120;2022-09-09T00:06:00;95591.50;;;19.90;58.66
46456;BME280;32154;47.160;8.120;2022-09-09T00:11:07;95595.31;;;20.02;58.79
46456;BME280;32154;47.160;8.120;2022-09-09T00:16:17;95597.75;;;19.97;57.47
46456;BME280;32154;47.160;8.120;2022-09-09T00:21:30;95609.94;;;19.78;58.46
46456;BME280;32154;47.160;8.120;2022-09-09T00:26:47;95605.28;;;19.36;59.05
46456;BME280;32154;47.160;8.120;2022-09-09T00:31:54;95601.53;;;19.52;58.75
46456;BME280;32154;47.160;8.120;2022-09-09T00:37:02;95609.84;;;19.43;58.66
46456;BME280;32154;47.160;8.120;2022-09-09T00:42:24;95615.66;;;19.46;58.56
46456;BME280;32154;47.160;8.120;2022-09-09T00:47:50;95626.72;;;19.65;58.02
46456;BME280;32154;47.160;8.120;2022-09-09T00:58:32;95614.75;;;19.61;57.39
46456;BME280;32154;47.160;8.120;2022-09-09T01:03:37;95616.03;;;19.43;57.41
46456;BME280;32154;47.160;8.120;2022-09-09T01:08:57;95620.25;;;19.09;58.93
46456;BME280;32154;47.160;8.120;2022-09-09T01:20:14;95622.28;;;19.29;57.96
46456;BME280;32154;47.160;8.120;2022-09-09T01:31:17;95630.00;;;18.80;60.07
46456;BME280;32154;47.160;8.120;2022-09-09T01:36:29;95626.19;;;18.89;59.90
46456;BME280;32154;47.160;8.120;2022-09-09T01:41:36;95630.25;;;19.22;59.00
46456;BME280;32154;47.160;8.120;2022-09-09T01:46:43;95630.25;;;19.22;58.55
46456;BME280;32154;47.160;8.120;2022-09-09T01:52:03;95639.09;;;19.44;58.95
46456;BME280;32154;47.160;8.120;2022-09-09T01:57:31;95634.06;;;19.85;57.15
46456;BME280;32154;47.160;8.120;2022-09-09T02:02:44;95635.06;;;19.84;56.96
46456;BME280;32154;47.160;8.120;2022-09-09T02:08:05;95634.31;;;19.90;56.96
46456;BME280;32154;47.160;8.120;2022-09-09T02:13:21;95639.72;;;19.24;57.99
46456;BME280;32154;47.160;8.120;2022-09-09T02:18:28;95646.28;;;19.22;58.15
46456;BME280;32154;47.160;8.120;2022-09-09T02:23:33;95661.31;;;19.23;57.55
46456;BME280;32154;47.160;8.120;2022-09-09T02:28:41;95665.31;;;19.56;57.88
46456;BME280;32154;47.160;8.120;2022-09-09T02:33:47;95658.75;;;19.15;58.59
46456;BME280;32154;47.160;8.120;2022-09-09T02:38:51;95646.63;;;18.97;58.75
46456;BME280;32154;47.160;8.120;2022-09-09T02:43:58;95642.66;;;18.56;60.28
46456;BME280;32154;47.160;8.120;2022-09-09T02:49:09;95642.72;;;18.78;60.47
46456;BME280;32154;47.160;8.120;2022-09-09T02:54:27;95652.88;;;19.04;59.62
46456;BME280;32154;47.160;8.120;2022-09-09T02:59:30;95656.09;;;19.00;60.68
46456;BME280;32154;47.160;8.120;2022-09-09T03:04:41;95658.97;;;18.83;60.35
46456;BME280;32154;47.160;8.120;2022-09-09T03:09:43;95655.94;;;18.86;60.74
46456;BME280;32154;47.160;8.120;2022-09-09T03:14:50;95650.09;;;18.98;59.95
46456;BME280;32154;47.160;8.120;2022-09-09T03:19:52;95642.13;;;18.82;60.40
46456;BME280;32154;47.160;8.120;2022-09-09T03:25:16;95651.03;;;18.90;61.45
46456;BME280;32154;47.160;8.120;2022-09-09T03:30:18;95656.53;;;19.18;61.68
46456;BME280;32154;47.160;8.120;2022-09-09T03:35:45;95649.22;;;18.90;63.18
46456;BME280;32154;47.160;8.120;2022-09-09T03:40:49;95655.63;;;19.33;61.80
46456;BME280;32154;47.160;8.120;2022-09-09T03:46:10;95645.19;;;19.38;62.70
46456;BME280;32154;47.160;8.120;2022-09-09T03:51:16;95647.63;;;19.55;62.32
46456;BME280;32154;47.160;8.120;2022-09-09T03:56:20;95645.78;;;19.84;61.04
46456;BME280;32154;47.160;8.120;2022-09-09T04:01:40;95641.63;;;20.03;60.89
46456;BME280;32154;47.160;8.120;2022-09-09T04:06:43;95639.53;;;19.98;60.85
46456;BME280;32154;47.160;8.120;2022-09-09T04:11:46;95645.63;;;19.42;62.18
46456;BME280;32154;47.160;8.120;2022-09-09T04:16:50;95646.06;;;19.23;63.08
46456;BME280;32154;47.160;8.120;2022-09-09T04:21:52;95647.38;;;19.28;63.53
46456;BME280;32154;47.160;8.120;2022-09-09T04:26:56;95643.84;;;19.49;62.83
46456;BME280;32154;47.160;8.120;2022-09-09T04:31:59;95641.69;;;19.88;61.48
46456;BME280;32154;47.160;8.120;2022-09-09T04:37:02;95644.72;;;19.78;61.06
46456;BME280;32154;47.160;8.120;2022-09-09T04:42:06;95641.03;;;20.07;61.77
46456;BME280;32154;47.160;8.120;2022-09-09T04:47:11;95647.03;;;19.88;62.04
46456;BME280;32154;47.160;8.120;2022-09-09T04:52:14;95647.84;;;19.60;63.52
46456;BME280;32154;47.160;8.120;2022-09-09T04:57:34;95650.84;;;19.72;63.02
46456;BME280;32154;47.160;8.120;2022-09-09T05:02:37;95651.59;;;19.65;63.44
46456;BME280;32154;47.160;8.120;2022-09-09T05:07:44;95646.94;;;19.74;62.28
46456;BME280;32154;47.160;8.120;2022-09-09T05:12:54;95644.34;;;19.88;63.22
46456;BME280;32154;47.160;8.120;2022-09-09T05:18:01;95642.72;;;19.87;62.33
46456;BME280;32154;47.160;8.120;2022-09-09T05:23:08;95647.84;;;20.10;63.65
46456;BME280;32154;47.160;8.120;2022-09-09T05:28:28;95652.94;;;20.05;62.76
46456;BME280;32154;47.160;8.120;2022-09-09T05:33:31;95649.66;;;20.03;61.77
46456;BME280;32154;47.160;8.120;2022-09-09T05:38:35;95662.22;;;20.02;63.24
46456;BME280;32154;47.160;8.120;2022-09-09T05:43:38;95651.78;;;20.14;63.37
46456;BME280;32154;47.160;8.120;2022-09-09T05:49:02;95654.31;;;19.94;62.36
46456;BME280;32154;47.160;8.120;2022-09-09T05:54:22;95656.88;;;20.02;62.30
46456;BME280;32154;47.160;8.120;2022-09-09T05:59:26;95657.56;;;19.89;62.18
46456;BME280;32154;47.160;8.120;2022-09-09T06:04:30;95651.13;;;19.84;63.81
46456;BME280;32154;47.160;8.120;2022-09-09T06:09:35;95658.84;;;19.93;62.12
46456;BME280;32154;47.160;8.120;2022-09-09T06:14:40;95653.97;;;20.04;61.18
46456;BME280;32154;47.160;8.120;2022-09-09T06:19:49;95659.09;;;20.27;60.80
46456;BME280;32154;47.160;8.120;2022-09-09T06:24:53;95660.81;;;20.42;61.61
46456;BME280;32154;47.160;8.120;2022-09-09T06:29:56;95665.75;;;20.45;62.26
46456;BME280;32154;47.160;8.120;2022-09-09T06:34:58;95666.25;;;20.62;60.43
46456;BME280;32154;47.160;8.120;2022-09-09T06:40:02;95656.28;;;20.84;59.72
46456;BME280;32154;47.160;8.120;2022-09-09T06:45:05;95651.91;;;20.76;60.72
46456;BME280;32154;47.160;8.120;2022-09-09T06:50:26;95663.81;;;20.74;61.03
46456;BME280;32154;47.160;8.120;2022-09-09T06:55:48;95660.44;;;20.94;60.41
46456;BME280;32154;47.160;8.120;2022-09-09T07:00:51;95671.31;;;20.85;60.75
46456;BME280;32154;47.160;8.120;2022-09-09T07:06:24;95665.19;;;20.98;59.45
46456;BME280;32154;47.160;8.120;2022-09-09T07:11:37;95659.81;;;20.91;59.11
46456;BME280;32154;47.160;8.120;2022-09-09T07:17:02;95670.03;;;20.74;57.48
46456;BME280;32154;47.160;8.120;2022-09-09T07:22:11;95660.16;;;21.44;56.31
46456;BME280;32154;47.160;8.120;2022-09-09T07:27:14;95664.44;;;20.27;57.89
46456;BME280;32154;47.160;8.120;2022-09-09T07:32:17;95649.28;;;20.90;57.18
46456;BME280;32154;47.160;8.120;2022-09-09T07:37:21;95651.53;;;21.69;55.69
46456;BME280;32154;47.160;8.120;2022-09-09T07:42:25;95658.47;;;22.37;54.64
46456;BME280;32154;47.160;8.120;2022-09-09T07:47:28;95661.25;;;21.70;55.92
46456;BME280;32154;47.160;8.120;2022-09-09T07:52:35;95666.13;;;24.03;50.82
46456;BME280;32154;47.160;8.120;2022-09-09T07:57:40;95677.00;;;24.40;46.95
46456;BME280;32154;47.160;8.120;2022-09-09T08:02:43;95670.03;;;26.22;47.10
46456;BME280;32154;47.160;8.120;2022-09-09T08:08:04;95676.72;;;25.04;45.71
46456;BME280;32154;47.160;8.120;2022-09-09T08:13:25;95683.84;;;26.14;42.31
46456;BME280;32154;47.160;8.120;2022-09-09T08:18:33;95682.63;;;27.92;40.49
46456;BME280;32154;47.160;8.120;2022-09-09T08:23:36;95682.34;;;27.94;39.13
46456;BME280;32154;47.160;8.120;2022-09-09T08:28:39;95684.13;;;28.17;40.02
46456;BME280;32154;47.160;8.120;2022-09-09T08:33:43;95684.00;;;28.12;40.10
46456;BME280;32154;47.160;8.120;2022-09-09T08:39:05;95677.03;;;26.71;41.28
46456;BME280;32154;47.160;8.120;2022-09-09T08:45:01;95697.03;;;26.94;43.34
46456;BME280;32154;47.160;8.120;2022-09-09T08:55:22;95690.81;;;26.22;41.62
46456;BME280;32154;47.160;8.120;2022-09-09T09:00:40;95692.81;;;25.60;43.75
46456;BME280;32154;47.160;8.120;2022-09-09T09:06:20;95698.53;;;25.52;45.29
46456;BME280;32154;47.160;8.120;2022-09-09T09:11:25;95704.72;;;23.64;50.50
46456;BME280;32154;47.160;8.120;2022-09-09T09:17:05;95726.41;;;23.69;51.55
46456;BME280;32154;47.160;8.120;2022-09-09T09:33:33;95701.91;;;21.94;54.22
46456;BME280;32154;47.160;8.120;2022-09-09T09:38:37;95681.28;;;22.94;55.82
46456;BME280;32154;47.160;8.120;2022-09-09T09:44:01;95704.25;;;24.50;50.96
46456;BME280;32154;47.160;8.120;2022-09-09T09:49:05;95713.16;;;24.51;50.59
46456;BME280;32154;47.160;8.120;2022-09-09T09:54:22;95714.34;;;24.99;46.53
46456;BME280;32154;47.160;8.120;2022-09-09T09:59:49;95709.25;;;26.61;43.36
46456;BME280;32154;47.160;8.120;2022-09-09T10:10:31;95691.59;;;27.64;42.44
46456;BME280;32154;47.160;8.120;2022-09-09T10:32:44;95686.91;;;29.01;40.44
46456;BME280;32154;47.160;8.120;2022-09-09T10:43:46;95679.06;;;29.50;37.69
46456;BME280;32154;47.160;8.120;2022-09-09T10:56:03;95680.53;;;28.51;39.14
46456;BME280;32154;47.160;8.120;2022-09-09T11:00:44;95674.44;;;29.50;35.01
46456;BME280;32154;47.160;8.120;2022-09-09T11:06:13;95674.94;;;28.58;35.83
46456;BME280;32154;47.160;8.120;2022-09-09T11:16:50;95661.03;;;30.79;34.09
46456;BME280;32154;47.160;8.120;2022-09-09T11:27:33;95646.50;;;29.27;32.67
46456;BME280;32154;47.160;8.120;2022-09-09T11:38:06;95636.78;;;30.73;31.52
46456;BME280;32154;47.160;8.120;2022-09-09T11:48:45;95643.06;;;31.63;31.36
46456;BME280;32154;47.160;8.120;2022-09-09T11:53:59;95640.97;;;30.48;30.69
46456;BME280;32154;47.160;8.120;2022-09-09T11:59:31;95634.53;;;29.83;31.71
46456;BME280;32154;47.160;8.120;2022-09-09T12:04:37;95630.88;;;30.38;28.92
46456;BME280;32154;47.160;8.120;2022-09-09T12:15:01;95628.25;;;30.59;29.36
46456;BME280;32154;47.160;8.120;2022-09-09T12:36:32;95617.28;;;30.96;30.07
46456;BME280;32154;47.160;8.120;2022-09-09T12:41:35;95612.13;;;30.95;30.20
46456;BME280;32154;47.160;8.120;2022-09-09T12:47:01;95612.50;;;29.80;31.53
46456;BME280;32154;47.160;8.120;2022-09-09T12:52:35;95609.66;;;29.64;30.29
46456;BME280;32154;47.160;8.120;2022-09-09T12:57:39;95610.66;;;30.66;29.63
46456;BME280;32154;47.160;8.120;2022-09-09T13:08:12;95602.97;;;29.77;30.97
46456;BME280;32154;47.160;8.120;2022-09-09T13:13:26;95585.53;;;29.73;31.00
46456;BME280;32154;47.160;8.120;2022-09-09T13:18:40;95577.47;;;29.83;30.43
46456;BME280;32154;47.160;8.120;2022-09-09T13:23:49;95576.03;;;30.08;29.60
46456;BME280;32154;47.160;8.120;2022-09-09T13:28:53;95568.66;;;28.39;28.67
46456;BME280;32154;47.160;8.120;2022-09-09T13:33:55;95569.72;;;29.05;29.18
46456;BME280;32154;47.160;8.120;2022-09-09T13:39:17;95570.22;;;28.79;30.06
46456;BME280;32154;47.160;8.120;2022-09-09T13:44:25;95575.91;;;28.33;30.70
46456;BME280;32154;47.160;8.120;2022-09-09T13:56:15;95573.53;;;29.09;32.60
46456;BME280;32154;47.160;8.120;2022-09-09T14:01:17;95572.28;;;29.44;31.24
46456;BME280;32154;47.160;8.120;2022-09-09T14:06:21;95568.13;;;29.69;30.26
46456;BME280;32154;47.160;8.120;2022-09-09T14:11:24;95581.88;;;29.57;30.08
46456;BME280;32154;47.160;8.120;2022-09-09T14:16:29;95577.06;;;28.20;29.45
46456;BME280;32154;47.160;8.120;2022-09-09T14:21:34;95570.03;;;29.08;30.68
46456;BME280;32154;47.160;8.120;2022-09-09T14:26:36;95568.63;;;28.16;30.16
46456;BME280;32154;47.160;8.120;2022-09-09T14:31:38;95576.75;;;28.16;30.83
46456;BME280;32154;47.160;8.120;2022-09-09T14:36:40;95571.69;;;28.65;30.53
46456;BME280;32154;47.160;8.120;2022-09-09T14:41:43;95581.56;;;28.98;30.86
46456;BME280;32154;47.160;8.120;2022-09-09T14:47:05;95585.84;;;28.27;29.36
46456;BME280;32154;47.160;8.120;2022-09-09T14:52:08;95589.47;;;28.16;32.09
46456;BME280;32154;47.160;8.120;2022-09-09T14:57:10;95595.81;;;28.04;30.77
46456;BME280;32154;47.160;8.120;2022-09-09T15:02:37;95584.19;;;28.88;31.09
46456;BME280;32154;47.160;8.120;2022-09-09T15:07:42;95585.78;;;29.39;28.54
46456;BME280;32154;47.160;8.120;2022-09-09T15:12:45;95588.19;;;28.18;28.58
46456;BME280;32154;47.160;8.120;2022-09-09T15:18:06;95592.13;;;28.11;29.69
46456;BME280;32154;47.160;8.120;2022-09-09T15:23:08;95603.38;;;27.85;29.30
46456;BME280;32154;47.160;8.120;2022-09-09T15:28:10;95592.25;;;28.60;28.50
46456;BME280;32154;47.160;8.120;2022-09-09T15:33:13;95605.19;;;27.97;28.29
46456;BME280;32154;47.160;8.120;2022-09-09T15:38:18;95596.41;;;27.55;28.86
46456;BME280;32154;47.160;8.120;2022-09-09T15:43:23;95597.53;;;28.28;29.04
46456;BME280;32154;47.160;8.120;2022-09-09T15:48:47;95600.63;;;27.51;29.38
46456;BME280;32154;47.160;8.120;2022-09-09T15:53:59;95601.91;;;27.77;28.23
46456;BME280;32154;47.160;8.120;2022-09-09T15:59:23;95606.28;;;28.35;29.49
46456;BME280;32154;47.160;8.120;2022-09-09T16:04:27;95603.00;;;27.30;28.58
46456;BME280;32154;47.160;8.120;2022-09-09T16:09:47;95600.09;;;26.50;29.83
46456;BME280;32154;47.160;8.120;2022-09-09T16:14:52;95603.97;;;26.06;31.86
46456;BME280;32154;47.160;8.120;2022-09-09T16:19:54;95613.50;;;25.43;32.20
46456;BME280;32154;47.160;8.120;2022-09-09T16:24:56;95620.13;;;24.86;33.19
46456;BME280;32154;47.160;8.120;2022-09-09T16:30:08;95618.28;;;24.98;32.79
46456;BME280;32154;47.160;8.120;2022-09-09T16:35:30;95629.63;;;24.88;33.70
46456;BME280;32154;47.160;8.120;2022-09-09T16:40:59;95636.94;;;24.62;34.28
46456;BME280;32154;47.160;8.120;2022-09-09T16:46:31;95652.00;;;24.51;33.63
46456;BME280;32154;47.160;8.120;2022-09-09T16:51:52;95659.34;;;23.93;35.94
46456;BME280;32154;47.160;8.120;2022-09-09T16:56:57;95665.16;;;22.94;38.16
46456;BME280;32154;47.160;8.120;2022-09-09T17:02:12;95680.34;;;22.61;39.87
46456;BME280;32154;47.160;8.120;2022-09-09T17:07:14;95688.63;;;22.46;40.47
46456;BME280;32154;47.160;8.120;2022-09-09T17:12:16;95703.34;;;22.23;41.11
46456;BME280;32154;47.160;8.120;2022-09-09T17:17:18;95716.53;;;22.45;40.48
46456;BME280;32154;47.160;8.120;2022-09-09T17:22:56;95745.91;;;22.26;40.88
46456;BME280;32154;47.160;8.120;2022-09-09T17:27:59;95760.75;;;22.09;41.43
46456;BME280;32154;47.160;8.120;2022-09-09T17:33:04;95762.00;;;22.06;43.70
46456;BME280;32154;47.160;8.120;2022-09-09T17:38:07;95765.91;;;21.83;43.74
46456;BME280;32154;47.160;8.120;2022-09-09T17:43:09;95764.25;;;21.75;45.88
46456;BME280;32154;47.160;8.120;2022-09-09T17:48:15;95780.56;;;21.81;46.57
46456;BME280;32154;47.160;8.120;2022-09-09T17:53:17;95769.41;;;21.22;46.83
46456;BME280;32154;47.160;8.120;2022-09-09T17:58:39;95776.03;;;21.88;46.11
46456;BME280;32154;47.160;8.120;2022-09-09T18:03:43;95777.50;;;22.17;45.81
46456;BME280;32154;47.160;8.120;2022-09-09T18:08:51;95780.22;;;22.51;45.35
46456;BME280;32154;47.160;8.120;2022-09-09T18:13:56;95771.50;;;22.42;43.67
46456;BME280;32154;47.160;8.120;2022-09-09T18:19:20;95778.13;;;22.26;44.36
46456;BME280;32154;47.160;8.120;2022-09-09T18:24:42;95784.31;;;22.20;44.94
46456;BME280;32154;47.160;8.120;2022-09-09T18:30:03;95780.19;;;22.65;44.55
46456;BME280;32154;47.160;8.120;2022-09-09T18:35:09;95783.50;;;22.53;43.77
46456;BME280;32154;47.160;8.120;2022-09-09T18:40:11;95793.41;;;22.73;45.09
46456;BME280;32154;47.160;8.120;2022-09-09T18:45:20;95781.81;;;22.72;44.40
46456;BME280;32154;47.160;8.120;2022-09-09T18:50:43;95783.06;;;22.43;44.92
46456;BME280;32154;47.160;8.120;2022-09-09T18:55:46;95792.56;;;22.05;46.01
46456;BME280;32154;47.160;8.120;2022-09-09T19:00:48;95805.94;;;21.29;48.58
46456;BME280;32154;47.160;8.120;2022-09-09T19:05:51;95797.88;;;21.71;47.43
46456;BME280;32154;47.160;8.120;2022-09-09T19:11:15;95809.06;;;21.88;46.66
46456;BME280;32154;47.160;8.120;2022-09-09T19:16:20;95811.94;;;20.89;48.81
46456;BME280;32154;47.160;8.120;2022-09-09T19:21:41;95825.97;;;20.91;49.70
46456;BME280;32154;47.160;8.120;2022-09-09T19:26:47;95831.88;;;21.15;50.21
46456;BME280;32154;47.160;8.120;2022-09-09T19:31:51;95832.38;;;21.32;49.44
46456;BME280;32154;47.160;8.120;2022-09-09T19:37:13;95840.44;;;20.97;49.22
46456;BME280;32154;47.160;8.120;2022-09-09T19:42:19;95839.22;;;21.00;48.73
46456;BME280;32154;47.160;8.120;2022-09-09T19:47:22;95839.50;;;20.83;49.87
46456;BME280;32154;47.160;8.120;2022-09-09T19:52:31;95836.91;;;20.97;50.44
46456;BME280;32154;47.160;8.120;2022-09-09T19:57:34;95841.84;;;21.35;50.29
46456;BME280;32154;47.160;8.120;2022-09-09T20:02:37;95849.38;;;21.60;48.76
46456;BME280;32154;47.160;8.120;2022-09-09T20:07:40;95856.28;;;21.34;49.97
46456;BME280;32154;47.160;8.120;2022-09-09T20:13:03;95867.91;;;21.06;49.81
46456;BME280;32154;47.160;8.120;2022-09-09T20:18:05;95883.41;;;21.11;49.73
46456;BME280;32154;47.160;8.120;2022-09-09T20:23:07;95884.63;;;21.08;49.26
46456;BME280;32154;47.160;8.120;2022-09-09T20:28:10;95898.59;;;20.75;48.89
46456;BME280;32154;47.160;8.120;2022-09-09T20:33:13;95897.34;;;20.99;48.30
46456;BME280;32154;47.160;8.120;2022-09-09T20:38:16;95881.66;;;20.02;50.93
46456;BME280;32154;47.160;8.120;2022-09-09T20:43:36;95876.88;;;19.83;49.62
46456;BME280;32154;47.160;8.120;2022-09-09T20:48:39;95876.47;;;20.01;47.45
46456;BME280;32154;47.160;8.120;2022-09-09T20:53:42;95857.75;;;19.49;47.98
46456;BME280;32154;47.160;8.120;2022-09-09T20:58:44;95861.94;;;19.73;47.86
46456;BME280;32154;47.160;8.120;2022-09-09T21:03:54;95856.66;;;19.58;47.20
46456;BME280;32154;47.160;8.120;2022-09-09T21:09:01;95864.44;;;19.75;47.50
46456;BME280;32154;47.160;8.120;2022-09-09T21:14:03;95857.16;;;19.69;46.51
46456;BME280;32154;47.160;8.120;2022-09-09T21:19:06;95864.84;;;19.57;46.86
46456;BME280;32154;47.160;8.120;2022-09-09T21:24:10;95859.41;;;20.02;45.76
46456;BME280;32154;47.160;8.120;2022-09-09T21:29:17;95859.97;;;20.19;45.76
46456;BME280;32154;47.160;8.120;2022-09-09T21:34:20;95876.34;;;20.53;45.43
46456;BME280;32154;47.160;8.120;2022-09-09T21:39:23;95876.44;;;21.16;42.81
46456;BME280;32154;47.160;8.120;2022-09-09T21:44:26;95887.56;;;21.13;44.25
46456;BME280;32154;47.160;8.120;2022-09-09T21:49:38;95894.69;;;21.34;44.46
46456;BME280;32154;47.160;8.120;2022-09-09T21:54:44;95892.16;;;20.98;45.49
46456;BME280;32154;47.160;8.120;2022-09-09T21:59:48;95896.22;;;21.15;45.01
46456;BME280;32154;47.160;8.120;2022-09-09T22:04:53;95903.22;;;21.16;45.03
46456;BME280;32154;47.160;8.120;2022-09-09T22:09:55;95906.44;;;20.55;46.40
46456;BME280;32154;47.160;8.120;2022-09-09T22:14:58;95902.66;;;20.92;45.92
46456;BME280;32154;47.160;8.120;2022-09-09T22:20:01;95894.50;;;20.57;46.96
46456;BME280;32154;47.160;8.120;2022-09-09T22:25:09;95889.53;;;20.76;46.15
46456;BME280;32154;47.160;8.120;2022-09-09T22:30:12;95886.22;;;21.02;45.45
46456;BME280;32154;47.160;8.120;2022-09-09T22:35:15;95900.50;;;20.81;46.75
46456;BME280;32154;47.160;8.120;2022-09-09T22:40:20;95897.31;;;20.05;49.17
46456;BME280;32154;47.160;8.120;2022-09-09T22:45:34;95898.59;;;19.43;51.16
46456;BME280;32154;47.160;8.120;2022-09-09T22:50:39;95895.22;;;19.04;51.74
46456;BME280;32154;47.160;8.120;2022-09-09T22:56:16;95904.69;;;19.36;50.64
46456;BME280;32154;47.160;8.120;2022-09-09T23:01:26;95900.38;;;20.24;48.15
46456;BME280;32154;47.160;8.120;2022-09-09T23:06:56;95901.78;;;20.20;48.65
46456;BME280;32154;47.160;8.120;2022-09-09T23:12:05;95902.41;;;20.22;49.15
46456;BME280;32154;47.160;8.120;2022-09-09T23:17:30;95901.81;;;20.42;48.00
46456;BME280;32154;47.160;8.120;2022-09-09T23:23:02;95891.94;;;20.20;49.24
46456;BME280;32154;47.160;8.120;2022-09-09T23:28:08;95895.19;;;19.64;50.40
46456;BME280;32154;47.160;8.120;2022-09-09T23:33:11;95898.09;;;19.84;50.69
46456;BME280;32154;47.160;8.120;2022-09-09T23:38:19;95891.56;;;19.72;50.76
46456;BME280;32154;47.160;8.120;2022-09-09T23:43:31;95895.31;;;19.92;50.79
46456;BME280;32154;47.160;8.120;2022-09-09T23:48:39;95903.81;;;19.96;50.40
46456;BME280;32154;47.160;8.120;2022-09-09T23:53:52;95907.63;;;19.42;51.80
46456;BME280;32154;47.160;8.120;2022-09-09T23:59:05;95894.16;;;19.65;50.64
